Hill, NH (03243)

10:55 AM EDT on July 27, 2017 (GMT -0400)
Heavens Plateau | | Change Station

Elev 1020 ft 43.52 °N, 71.82 °W | Updated 9 seconds ago

Overcast
Overcast
67.6 °F
Feels Like 67.6 °F
N
3.0
Wind Variable Wind from SW
Gusts 7.0 mph

Today
High -- | Low -- °F
--% Chance of Precip.
Yesterday
High -- | Low -- °F
Precip. -- in
Pressure 29.94 in
Visibility 10.0 miles
Clouds Overcast 2300 ft
Dew Point 61 °F
Humidity 80%
Rainfall 0.02 in
Snow Depth Not available.
5:31 AM 8:14 PM
Waxing Crescent, 21% visible
METAR K1P1 271455Z AUTO 00000KT 10SM OVC023 20/16 A2994 RMK AO2 T01970162
Pressure 29.94 in
Visibility 10.0 miles
Clouds Overcast 2300 ft
Dew Point 61 °F
Humidity 80%
Rainfall 0.02 in
Snow Depth Not available.
5:31 AM 8:14 PM
Waxing Crescent, 21% visible
METAR K1P1 271455Z AUTO 00000KT 10SM OVC023 20/16 A2994 RMK AO2 T01970162

Get Severe Weather Alerts

Thanks for signing up!

Be on the lookout for a verification email in your inbox.

You'll start receiving the daily forecast at 6 AM.

×

10-Day Weather Forecast

Almanac

Astronomy

Jul. 27, 2017 Rise Set
Actual Time
Civil Twilight
Nautical Twilight
Astronomical Twilight
Moon
Length of Visible Light
Length of Day
Tomorrow will be .
, % of the Moon is Illuminated

Today's Extremes

State Highs State Lows

Community

WunderPhotos

Category 6

Welcome to Category 6. This is the collective home for Weather Underground's featured writeups by Dr. Jeff Masters (right), Bob Henson (left), Chris Burt, and other regular contributors.

Nearby

Air Quality

  Air Quality AQ Index Pollutant
Not available.

Snow Depth

Station Depth Elevation

Earthquake Activity

City Distance Mag. Time & Date
Minimum magnitude displayed is 2.5.

Coastal Water Temperatures

Place Temperature

Stations

Nearby Weather Stations

Station Location Temp. Windchill Dew Point Humidity Wind Precip. Elev Updated Type
                   

Watches & Warnings

There are currently no watches in effect.